Time;durP1;ratioP1;P1;durP2;ratioP2;P2;SDS_P1;SDS_P2;PMS_P1;PMS_P2;Temp;Humidity;BMP_temperature;BMP_pressure;BME280_temperature;BME280_humidity;BME280_pressure;Samples;Min_cycle;Max_cycle;Signal;HPM_P1;HPM_P2
2021/11/04 00:00:31;;;;;;;7.00;4.65;;;8.60;99.90;;;;;;5051067;28;20491;-79
2021/11/04 00:02:58;;;;;;;8.75;5.13;;;8.60;99.90;;;;;;5050675;28;20049;-81
2021/11/04 00:05:26;;;;;;;8.07;5.18;;;8.60;99.90;;;;;;5050161;28;20053;-79
2021/11/04 00:07:57;;;;;;;8.98;5.50;;;8.60;99.90;;;;;;5030472;28;20458;-81
2021/11/04 00:10:27;;;;;;;7.43;5.47;;;8.60;99.90;;;;;;5031317;28;20056;-81
2021/11/04 00:12:54;;;;;;;8.88;5.40;;;8.60;99.90;;;;;;5044359;28;20080;-80
2021/11/04 00:15:22;;;;;;;8.52;5.40;;;8.50;99.90;;;;;;5050161;28;20056;-79
2021/11/04 00:17:49;;;;;;;7.55;5.35;;;8.60;99.90;;;;;;5050331;28;20049;-81
2021/11/04 00:20:18;;;;;;;6.95;5.20;;;8.50;99.90;;;;;;5050282;28;20459;-81
2021/11/04 00:22:47;;;;;;;8.88;5.55;;;8.50;99.90;;;;;;5050204;28;20139;-81
2021/11/04 00:25:14;;;;;;;8.00;5.05;;;8.50;99.90;;;;;;5050288;28;20477;-81
2021/11/04 00:27:43;;;;;;;8.63;5.45;;;8.50;99.90;;;;;;5050189;28;20135;-80
2021/11/04 00:30:12;;;;;;;8.02;5.40;;;8.50;99.90;;;;;;5050662;28;20164;-80
2021/11/04 00:32:44;;;;;;;7.65;5.03;;;8.50;99.90;;;;;;5047491;28;20038;-83
2021/11/04 00:35:11;;;;;;;8.43;5.47;;;8.50;99.90;;;;;;5034076;28;20125;-80
2021/11/04 00:37:38;;;;;;;7.97;5.22;;;8.40;99.90;;;;;;5053331;28;20067;-80
2021/11/04 00:40:07;;;;;;;7.70;5.28;;;8.40;99.90;;;;;;5051753;28;20079;-79
2021/11/04 00:42:35;;;;;;;8.48;5.25;;;8.40;99.90;;;;;;5049701;28;20049;-83
2021/11/04 00:45:04;;;;;;;6.75;4.57;;;8.40;99.90;;;;;;5050001;28;20088;-81
2021/11/04 00:47:31;;;;;;;7.07;4.40;;;8.40;99.90;;;;;;5050865;28;20041;-80
2021/11/04 00:49:58;;;;;;;6.47;4.35;;;8.40;99.90;;;;;;5050202;28;20148;-83
2021/11/04 00:52:26;;;;;;;7.88;4.90;;;8.40;99.90;;;;;;5049200;28;20168;-80
2021/11/04 00:54:53;;;;;;;7.90;5.20;;;8.40;99.90;;;;;;5050734;28;20102;-80
2021/11/04 00:57:20;;;;;;;8.90;5.68;;;8.40;99.90;;;;;;5049768;28;20053;-81
2021/11/04 00:59:48;;;;;;;9.15;5.43;;;8.40;99.90;;;;;;5050251;28;20450;-81
2021/11/04 01:02:17;;;;;;;8.57;5.32;;;8.40;99.90;;;;;;5050063;28;20048;-82
2021/11/04 01:04:44;;;;;;;7.38;4.70;;;8.30;99.90;;;;;;5049167;28;20128;-79
2021/11/04 01:07:11;;;;;;;6.78;4.50;;;8.30;99.90;;;;;;5049992;28;20152;-80
2021/11/04 01:09:38;;;;;;;6.70;4.60;;;8.30;99.90;;;;;;5050541;28;20048;-81
2021/11/04 01:12:07;;;;;;;7.55;5.05;;;8.30;99.90;;;;;;5051396;28;20102;-81
2021/11/04 01:14:34;;;;;;;6.78;4.30;;;8.30;99.90;;;;;;5053226;28;20133;-81
2021/11/04 01:17:01;;;;;;;6.97;4.32;;;8.20;99.90;;;;;;5052926;28;20084;-80
2021/11/04 01:19:29;;;;;;;6.53;4.10;;;8.20;99.90;;;;;;5052759;28;20131;-80
2021/11/04 01:21:56;;;;;;;6.47;4.35;;;8.20;99.90;;;;;;5052857;28;20466;-81
2021/11/04 01:24:23;;;;;;;7.43;4.80;;;8.20;99.90;;;;;;5052274;28;20131;-81
2021/11/04 01:26:51;;;;;;;6.60;4.32;;;8.20;99.90;;;;;;5047778;28;20140;-80
2021/11/04 01:29:18;;;;;;;8.05;4.32;;;8.20;99.90;;;;;;5032421;28;20136;-80
2021/11/04 01:31:45;;;;;;;6.15;4.00;;;8.20;99.90;;;;;;5055211;28;20119;-82
2021/11/04 01:34:12;;;;;;;5.90;3.75;;;8.20;99.90;;;;;;5072920;28;20136;-81
2021/11/04 01:36:40;;;;;;;5.60;3.63;;;8.20;99.90;;;;;;5075079;28;20049;-81
2021/11/04 01:39:08;;;;;;;6.40;3.78;;;8.20;99.90;;;;;;5072134;28;20123;-80
2021/11/04 01:41:36;;;;;;;5.75;3.63;;;8.20;99.90;;;;;;5054364;28;20558;-78
2021/11/04 01:44:03;;;;;;;6.07;3.97;;;8.20;99.90;;;;;;5054918;28;20084;-82
2021/11/04 01:46:30;;;;;;;6.75;3.72;;;8.20;99.90;;;;;;5053601;28;20128;-81
2021/11/04 01:48:59;;;;;;;5.97;3.30;;;8.20;99.90;;;;;;5054009;28;20084;-79
2021/11/04 01:51:26;;;;;;;5.10;3.20;;;8.10;99.90;;;;;;5053344;28;20099;-78
2021/11/04 01:53:56;;;;;;;4.43;2.50;;;8.10;99.90;;;;;;5051703;28;20127;-79
2021/11/04 01:56:24;;;;;;;4.30;2.57;;;8.10;99.90;;;;;;5032124;28;20041;-80
2021/11/04 01:58:52;;;;;;;5.53;2.95;;;8.10;99.90;;;;;;5032526;28;20079;-80
2021/11/04 02:01:19;;;;;;;5.63;3.15;;;8.10;99.90;;;;;;5038557;28;20423;-80
2021/11/04 02:03:59;;;;;;;4.20;2.55;;;8.10;99.90;;;;;;5052274;28;20157;-79
2021/11/04 02:06:33;;;;;;;5.22;2.80;;;8.10;99.90;;;;;;5052154;28;20116;-81
2021/11/04 02:09:08;;;;;;;5.90;3.20;;;8.10;99.90;;;;;;5052163;28;20040;-80
2021/11/04 02:11:40;;;;;;;5.00;2.80;;;8.10;99.90;;;;;;5047663;28;20152;-81
2021/11/04 02:14:13;;;;;;;5.20;3.30;;;8.10;99.90;;;;;;5032140;28;20144;-80
2021/11/04 02:16:42;;;;;;;4.93;3.20;;;8.10;99.90;;;;;;5046429;28;20140;-81
2021/11/04 02:19:20;;;;;;;5.93;3.60;;;8.10;99.90;;;;;;5051865;28;20452;-81
2021/11/04 02:21:57;;;;;;;9.55;3.97;;;8.10;99.90;;;;;;5041957;28;20490;-81
2021/11/04 02:24:39;;;;;;;6.07;4.10;;;8.10;99.90;;;;;;5032375;28;20394;-80
2021/11/04 02:27:11;;;;;;;5.53;3.50;;;8.10;99.90;;;;;;5031941;28;20052;-80
2021/11/04 02:29:39;;;;;;;5.95;3.67;;;8.00;99.90;;;;;;5031770;28;20136;-81
2021/11/04 02:32:08;;;;;;;5.50;3.25;;;8.00;99.90;;;;;;5044014;28;20127;-80
2021/11/04 02:34:38;;;;;;;5.80;3.70;;;8.00;99.90;;;;;;5050572;28;20133;-80
2021/11/04 02:37:07;;;;;;;5.20;3.20;;;8.00;99.90;;;;;;5051655;28;20467;-80
2021/11/04 02:39:36;;;;;;;5.40;3.22;;;8.00;99.90;;;;;;5051507;28;20144;-79
2021/11/04 02:42:05;;;;;;;4.18;2.78;;;7.90;99.90;;;;;;5050112;28;20084;-81
2021/11/04 02:44:35;;;;;;;4.80;2.72;;;7.90;99.90;;;;;;5051676;28;20550;-79
2021/11/04 02:47:04;;;;;;;4.18;2.42;;;7.90;99.90;;;;;;5051792;28;20057;-81
2021/11/04 02:49:31;;;;;;;4.95;2.47;;;7.90;99.90;;;;;;5051615;28;20542;-81
2021/11/04 02:51:59;;;;;;;3.42;1.98;;;7.90;99.90;;;;;;5050971;28;20045;-81
2021/11/04 02:54:26;;;;;;;4.68;2.00;;;7.90;99.90;;;;;;5051576;28;20131;-81
2021/11/04 02:56:56;;;;;;;3.47;1.80;;;7.80;99.90;;;;;;5050775;28;20132;-82
2021/11/04 02:59:26;;;;;;;3.65;1.80;;;7.80;99.90;;;;;;5051367;28;20491;-83
2021/11/04 03:01:57;;;;;;;3.05;1.45;;;7.70;99.90;;;;;;5052445;28;20140;-83
2021/11/04 03:04:25;;;;;;;3.33;1.60;;;7.70;99.90;;;;;;5052772;28;20132;-79
2021/11/04 03:06:53;;;;;;;3.17;1.50;;;7.60;99.90;;;;;;5053036;28;20139;-81
2021/11/04 03:09:21;;;;;;;3.10;1.40;;;7.60;99.90;;;;;;5055454;28;20076;-82
2021/11/04 03:11:48;;;;;;;3.05;1.42;;;7.60;99.90;;;;;;5055543;28;20092;-81
2021/11/04 03:14:17;;;;;;;3.47;1.30;;;7.50;99.90;;;;;;5054827;28;20084;-81
2021/11/04 03:16:47;;;;;;;2.90;1.10;;;7.50;99.90;;;;;;5055329;28;20481;-81
2021/11/04 03:19:19;;;;;;;2.42;1.10;;;7.50;99.90;;;;;;5055039;28;20080;-81
2021/11/04 03:21:49;;;;;;;2.55;1.10;;;7.50;99.90;;;;;;5054958;28;20044;-80
2021/11/04 03:24:19;;;;;;;1.58;0.80;;;7.50;99.90;;;;;;5055919;28;20055;-80
2021/11/04 03:26:50;;;;;;;2.50;1.10;;;7.50;99.90;;;;;;5055604;28;20132;-80
2021/11/04 03:29:19;;;;;;;2.03;1.00;;;7.40;99.90;;;;;;5054887;28;20065;-81
2021/11/04 03:31:49;;;;;;;2.70;0.80;;;7.40;99.90;;;;;;5055270;28;20052;-81
2021/11/04 03:34:18;;;;;;;1.67;0.80;;;7.40;99.90;;;;;;5055235;28;20451;-81
2021/11/04 03:36:50;;;;;;;1.75;0.70;;;7.30;99.90;;;;;;5055358;28;20467;-81
2021/11/04 03:39:19;;;;;;;2.63;0.80;;;7.30;99.90;;;;;;5055103;28;20494;-81
2021/11/04 03:41:49;;;;;;;2.17;0.95;;;7.30;99.90;;;;;;5055479;28;20411;-82
2021/11/04 03:44:19;;;;;;;1.10;0.60;;;7.30;99.90;;;;;;5054994;28;20048;-82
2021/11/04 03:46:47;;;;;;;1.40;0.70;;;7.20;99.90;;;;;;5055156;28;20045;-82
2021/11/04 03:49:18;;;;;;;1.33;0.63;;;7.20;99.90;;;;;;5054986;28;20131;-81
2021/11/04 03:51:49;;;;;;;1.95;0.52;;;7.20;99.90;;;;;;5053379;28;20808;-81
2021/11/04 03:54:18;;;;;;;1.65;0.80;;;7.20;99.90;;;;;;5054644;28;20049;-80
2021/11/04 03:56:45;;;;;;;1.67;0.60;;;7.20;99.90;;;;;;5054316;28;20538;-82
2021/11/04 03:59:12;;;;;;;1.42;0.80;;;7.20;99.90;;;;;;5054693;28;20143;-81
2021/11/04 04:01:40;;;;;;;1.38;0.75;;;7.20;99.90;;;;;;5053877;28;20219;-80
2021/11/04 04:04:09;;;;;;;1.40;0.80;;;7.20;99.90;;;;;;5051943;28;20194;-80
2021/11/04 04:06:39;;;;;;;1.35;0.70;;;7.10;99.90;;;;;;5052440;28;20049;-82
2021/11/04 04:09:08;;;;;;;1.77;0.70;;;7.10;99.90;;;;;;5050532;28;20114;-81
2021/11/04 04:11:36;;;;;;;1.50;0.70;;;7.10;99.90;;;;;;5050992;28;20049;-82
2021/11/04 04:14:03;;;;;;;1.58;0.60;;;7.10;99.90;;;;;;5051310;28;20111;-81
2021/11/04 04:16:30;;;;;;;2.03;0.60;;;7.10;99.90;;;;;;5051306;28;20101;-79
2021/11/04 04:18:57;;;;;;;1.35;0.70;;;7.10;99.90;;;;;;5051416;28;20136;-80
2021/11/04 04:21:24;;;;;;;1.50;0.70;;;7.10;99.90;;;;;;5051832;28;20069;-79
2021/11/04 04:23:53;;;;;;;1.23;0.60;;;7.20;99.90;;;;;;5051768;28;20479;-82
2021/11/04 04:26:20;;;;;;;1.35;0.75;;;7.10;99.90;;;;;;5050057;28;20132;-82
2021/11/04 04:28:47;;;;;;;1.80;0.80;;;7.10;99.90;;;;;;5051187;28;20577;-82
2021/11/04 04:31:14;;;;;;;2.20;0.93;;;7.10;99.90;;;;;;5051107;28;20123;-82
2021/11/04 04:33:41;;;;;;;1.60;0.73;;;7.10;99.90;;;;;;5041639;28;20096;-83
2021/11/04 04:36:08;;;;;;;2.00;1.00;;;7.10;99.90;;;;;;5048520;28;20574;-80
2021/11/04 04:38:36;;;;;;;1.60;0.80;;;7.00;99.90;;;;;;5050379;28;20128;-79
2021/11/04 04:41:04;;;;;;;2.00;1.00;;;7.00;99.90;;;;;;5050435;28;20128;-81
2021/11/04 04:43:31;;;;;;;1.38;0.80;;;7.00;99.90;;;;;;5051940;28;20132;-84
2021/11/04 04:45:58;;;;;;;2.67;1.00;;;7.00;99.90;;;;;;5053264;28;20069;-84
2021/11/04 04:48:26;;;;;;;2.08;1.10;;;7.00;99.90;;;;;;5059283;28;20045;-85
2021/11/04 04:50:53;;;;;;;1.98;1.02;;;7.00;99.90;;;;;;5060158;28;20068;-88
2021/11/04 04:53:20;;;;;;;2.13;1.05;;;7.00;99.90;;;;;;5066026;28;20080;-90
2021/11/04 04:55:47;;;;;;;2.83;1.30;;;7.00;99.90;;;;;;5054973;28;20084;-86
2021/11/04 04:58:16;;;;;;;2.90;1.50;;;7.00;99.90;;;;;;5051653;28;20139;-87
2021/11/04 05:00:50;;;;;;;2.30;1.25;;;6.90;99.90;;;;;;5051365;28;20128;-85
2021/11/04 05:03:17;;;;;;;2.67;1.38;;;6.90;99.90;;;;;;5055880;28;20055;-86
2021/11/04 05:05:44;;;;;;;3.00;1.40;;;6.90;99.90;;;;;;5058338;28;20108;-86
2021/11/04 05:08:12;;;;;;;2.83;1.40;;;6.90;99.90;;;;;;5062940;28;20080;-84
2021/11/04 05:10:39;;;;;;;3.05;1.58;;;6.90;99.90;;;;;;5056248;28;20051;-81
2021/11/04 05:13:06;;;;;;;3.60;1.50;;;6.90;99.90;;;;;;5054433;28;20140;-82
2021/11/04 05:15:35;;;;;;;2.85;1.45;;;6.90;99.90;;;;;;5053560;28;20588;-79
2021/11/04 05:18:03;;;;;;;3.75;1.30;;;6.90;99.90;;;;;;5052976;28;20467;-80
2021/11/04 05:20:30;;;;;;;2.30;1.30;;;6.80;99.90;;;;;;5053133;28;20049;-88
2021/11/04 05:22:58;;;;;;;2.50;1.40;;;6.80;99.90;;;;;;5055013;28;20446;-80
2021/11/04 05:25:25;;;;;;;2.35;1.23;;;6.80;99.90;;;;;;5053871;28;20128;-80
2021/11/04 05:27:53;;;;;;;3.15;1.48;;;6.80;99.90;;;;;;5068337;28;20136;-81
2021/11/04 05:30:20;;;;;;;2.88;1.38;;;6.80;99.90;;;;;;5054093;28;20160;-82
2021/11/04 05:32:50;;;;;;;2.60;1.33;;;6.80;99.90;;;;;;5056382;28;20578;-81
2021/11/04 05:35:18;;;;;;;2.88;1.60;;;6.80;99.90;;;;;;5056145;28;20139;-79
2021/11/04 05:37:45;;;;;;;2.90;1.70;;;6.80;99.90;;;;;;5056263;28;20072;-82
2021/11/04 05:40:13;;;;;;;2.90;1.60;;;6.70;99.90;;;;;;5056208;28;20068;-83
2021/11/04 05:42:41;;;;;;;3.25;1.80;;;6.70;99.90;;;;;;5056389;28;20085;-83
2021/11/04 05:45:09;;;;;;;3.28;1.88;;;6.80;99.90;;;;;;5055847;28;20051;-82
2021/11/04 05:47:36;;;;;;;3.40;1.88;;;6.70;99.90;;;;;;5057117;28;20128;-80
2021/11/04 05:50:06;;;;;;;3.10;1.80;;;6.70;99.90;;;;;;5056776;28;20080;-81
2021/11/04 05:52:33;;;;;;;3.33;1.83;;;6.80;99.90;;;;;;5057717;28;20084;-81
2021/11/04 05:55:01;;;;;;;3.95;2.33;;;6.70;99.90;;;;;;5055700;28;20068;-80
2021/11/04 05:57:28;;;;;;;3.40;1.92;;;6.80;99.90;;;;;;5054446;28;20053;-82
2021/11/04 05:59:55;;;;;;;3.10;1.65;;;6.70;99.90;;;;;;5056980;28;20490;-80
2021/11/04 06:02:23;;;;;;;3.45;1.95;;;6.70;99.90;;;;;;5057192;28;20084;-82
2021/11/04 06:04:50;;;;;;;3.50;1.92;;;6.70;99.90;;;;;;5056634;28;20102;-81
2021/11/04 06:07:19;;;;;;;3.30;1.90;;;6.70;99.90;;;;;;5052509;28;20581;-81
2021/11/04 06:09:46;;;;;;;3.40;1.88;;;6.70;99.90;;;;;;5053019;28;20076;-80
2021/11/04 06:12:13;;;;;;;3.78;1.70;;;6.70;99.90;;;;;;5055134;28;20571;-81
2021/11/04 06:14:41;;;;;;;4.05;1.90;;;6.70;99.90;;;;;;5055140;28;20077;-81
2021/11/04 06:17:08;;;;;;;3.67;2.08;;;6.80;99.90;;;;;;5053932;28;20053;-81
2021/11/04 06:19:35;;;;;;;3.50;2.00;;;6.70;99.90;;;;;;5052966;28;20135;-81
2021/11/04 06:22:02;;;;;;;3.75;2.08;;;6.70;99.90;;;;;;5050940;28;20051;-79
2021/11/04 06:24:31;;;;;;;3.70;2.10;;;6.70;99.90;;;;;;5053583;28;20080;-80
2021/11/04 06:26:58;;;;;;;3.70;2.03;;;6.70;99.90;;;;;;5052632;28;20132;-80
2021/11/04 06:29:25;;;;;;;4.53;2.08;;;6.70;99.90;;;;;;5051973;28;20084;-82
2021/11/04 06:31:52;;;;;;;3.85;2.42;;;6.70;99.90;;;;;;5051799;28;20143;-82
2021/11/04 06:34:19;;;;;;;3.55;1.95;;;6.70;99.90;;;;;;5051093;28;20128;-81
2021/11/04 06:36:46;;;;;;;3.28;1.90;;;6.70;99.90;;;;;;5052181;28;20144;-81
2021/11/04 06:39:14;;;;;;;3.28;1.85;;;6.70;99.90;;;;;;5052457;28;20096;-80
2021/11/04 06:41:43;;;;;;;3.60;2.10;;;6.70;99.90;;;;;;5033629;28;20076;-81
2021/11/04 06:44:10;;;;;;;3.50;2.13;;;6.70;99.90;;;;;;5037254;28;20129;-79
2021/11/04 06:46:37;;;;;;;3.13;1.70;;;6.70;99.90;;;;;;5036522;28;20060;-79
2021/11/04 06:49:08;;;;;;;3.03;1.60;;;6.70;99.90;;;;;;5036163;28;20134;-79
2021/11/04 06:51:40;;;;;;;3.33;1.85;;;6.70;99.90;;;;;;5036738;28;20400;-79
2021/11/04 06:54:09;;;;;;;3.45;1.67;;;6.70;99.90;;;;;;5038371;28;20054;-82
2021/11/04 06:56:42;;;;;;;3.28;1.70;;;6.70;99.90;;;;;;5055429;28;20546;-79
2021/11/04 06:59:18;;;;;;;3.30;1.70;;;6.70;99.90;;;;;;5055839;28;20049;-79
2021/11/04 07:01:53;;;;;;;3.45;1.60;;;6.70;99.90;;;;;;5056409;28;20068;-80
2021/11/04 07:04:29;;;;;;;3.00;1.52;;;6.70;99.90;;;;;;5056405;28;20049;-80
2021/11/04 07:07:03;;;;;;;3.58;1.70;;;6.80;99.90;;;;;;5076248;28;20052;-80
2021/11/04 07:09:32;;;;;;;2.70;1.42;;;6.70;99.90;;;;;;5049976;28;20056;-80
2021/11/04 07:12:01;;;;;;;4.65;1.60;;;6.70;99.90;;;;;;5055863;28;20437;-80
2021/11/04 07:14:30;;;;;;;2.78;1.50;;;6.70;99.90;;;;;;5056347;28;20084;-79
2021/11/04 07:16:58;;;;;;;2.65;1.50;;;6.70;99.90;;;;;;5056522;28;20471;-79
2021/11/04 07:19:25;;;;;;;4.18;1.40;;;6.70;99.90;;;;;;5055700;28;20140;-80
2021/11/04 07:22:03;;;;;;;2.80;1.40;;;6.70;99.90;;;;;;5055317;28;20056;-80
2021/11/04 07:24:34;;;;;;;2.80;1.40;;;6.70;99.90;;;;;;5056051;28;20068;-81
2021/11/04 07:27:15;;;;;;;2.70;1.40;;;6.70;99.90;;;;;;5056118;28;20068;-80
2021/11/04 07:29:47;;;;;;;2.47;1.30;;;6.80;99.90;;;;;;5055419;28;20137;-80
2021/11/04 07:32:16;;;;;;;2.67;1.30;;;6.80;99.90;;;;;;5056280;28;20083;-79
2021/11/04 07:34:46;;;;;;;3.03;1.25;;;6.80;99.90;;;;;;5056315;28;20148;-79
2021/11/04 07:37:14;;;;;;;2.90;1.40;;;6.80;99.90;;;;;;5055571;28;20139;-81
2021/11/04 07:39:44;;;;;;;2.72;1.40;;;6.80;99.90;;;;;;5072466;28;20072;-80
2021/11/04 07:42:14;;;;;;;3.33;1.30;;;6.80;99.90;;;;;;5055426;28;20128;-80
2021/11/04 07:44:41;;;;;;;2.95;1.13;;;6.80;99.90;;;;;;5055114;28;20570;-81
2021/11/04 07:47:09;;;;;;;2.20;1.20;;;6.80;99.90;;;;;;5053837;28;20076;-80
2021/11/04 07:49:36;;;;;;;2.15;1.00;;;6.90;99.90;;;;;;5055077;28;20132;-80
2021/11/04 07:52:06;;;;;;;2.15;1.00;;;6.80;99.90;;;;;;5054303;28;20402;-82
2021/11/04 07:54:34;;;;;;;3.30;1.10;;;6.80;99.90;;;;;;5060919;28;20049;-80
2021/11/04 07:57:01;;;;;;;3.17;1.25;;;6.80;99.90;;;;;;5055603;28;20045;-80
2021/11/04 07:59:31;;;;;;;2.08;0.90;;;6.80;99.90;;;;;;5054923;28;20056;-80
2021/11/04 08:02:00;;;;;;;2.15;1.00;;;6.80;99.90;;;;;;5055422;28;20092;-81
2021/11/04 08:04:28;;;;;;;2.22;1.00;;;6.90;99.90;;;;;;5055030;28;20055;-79
2021/11/04 08:06:55;;;;;;;2.50;1.10;;;6.90;99.90;;;;;;5054517;28;20057;-80
2021/11/04 08:09:22;;;;;;;1.92;0.90;;;6.90;99.90;;;;;;5055502;28;20136;-80
2021/11/04 08:11:49;;;;;;;2.25;1.00;;;6.80;99.90;;;;;;5055518;28;20128;-81
2021/11/04 08:14:17;;;;;;;2.20;1.00;;;6.80;99.90;;;;;;5070250;28;20466;-79
2021/11/04 08:16:45;;;;;;;2.83;0.90;;;6.80;99.90;;;;;;5069893;28;20049;-79
2021/11/04 08:19:12;;;;;;;1.65;0.85;;;6.80;99.90;;;;;;5055443;28;20063;-78
2021/11/04 08:21:39;;;;;;;1.88;0.82;;;6.80;99.90;;;;;;5055921;28;20053;-79
2021/11/04 08:24:06;;;;;;;2.15;0.90;;;6.90;99.90;;;;;;5057944;28;20106;-79
2021/11/04 08:26:34;;;;;;;2.28;0.90;;;6.90;99.90;;;;;;5054734;28;20144;-79
2021/11/04 08:29:02;;;;;;;1.85;0.75;;;6.90;99.90;;;;;;5054669;28;20073;-80
2021/11/04 08:31:31;;;;;;;2.65;0.90;;;6.90;99.90;;;;;;5054684;28;20073;-79
2021/11/04 08:34:00;;;;;;;6.97;0.85;;;6.90;99.90;;;;;;5045936;28;20130;-79
2021/11/04 08:36:27;;;;;;;2.28;0.80;;;6.80;99.90;;;;;;5065802;28;20064;-79
2021/11/04 08:38:54;;;;;;;1.83;0.80;;;6.80;99.90;;;;;;5049480;28;20562;-79
2021/11/04 08:41:21;;;;;;;1.58;0.63;;;6.80;99.90;;;;;;5034800;28;20518;-80
2021/11/04 08:43:49;;;;;;;1.52;0.60;;;6.80;99.90;;;;;;5037340;28;20099;-81
2021/11/04 08:46:16;;;;;;;1.70;0.65;;;6.80;99.90;;;;;;5034090;28;20045;-81
2021/11/04 08:48:43;;;;;;;8.00;0.85;;;6.80;99.90;;;;;;5048269;28;20139;-81
2021/11/04 08:51:12;;;;;;;1.13;0.60;;;6.80;99.90;;;;;;5052619;28;20479;-80
2021/11/04 08:53:40;;;;;;;2.58;0.73;;;6.80;99.90;;;;;;5052749;28;20124;-80
2021/11/04 08:56:08;;;;;;;1.13;0.60;;;6.70;99.90;;;;;;5053744;28;20102;-82
2021/11/04 08:58:36;;;;;;;1.73;0.68;;;6.70;99.90;;;;;;5053383;28;20135;-81
2021/11/04 09:01:05;;;;;;;1.48;0.57;;;6.70;99.90;;;;;;5052214;28;20095;-82
2021/11/04 09:03:32;;;;;;;1.42;0.60;;;6.70;99.90;;;;;;5050472;28;20106;-81
2021/11/04 09:06:00;;;;;;;1.48;0.50;;;6.60;99.90;;;;;;5053396;28;20468;-80
2021/11/04 09:08:31;;;;;;;1.27;0.60;;;6.60;99.90;;;;;;5057932;28;20053;-79
2021/11/04 09:10:58;;;;;;;1.30;0.50;;;6.50;99.90;;;;;;5057336;28;20064;-79
2021/11/04 09:13:25;;;;;;;1.17;0.50;;;6.50;99.90;;;;;;5059337;28;20257;-79
2021/11/04 09:15:53;;;;;;;1.60;0.60;;;6.50;99.90;;;;;;5058083;28;20135;-80
2021/11/04 09:18:22;;;;;;;0.93;0.50;;;6.50;99.90;;;;;;5056766;28;20053;-80
2021/11/04 09:20:51;;;;;;;2.08;0.80;;;6.50;99.90;;;;;;5061998;28;20057;-80
2021/11/04 09:23:19;;;;;;;1.25;0.50;;;6.40;99.90;;;;;;5062473;28;20049;-80
2021/11/04 09:25:47;;;;;;;1.52;0.50;;;6.40;99.90;;;;;;5058818;28;20114;-80
2021/11/04 09:28:14;;;;;;;1.52;0.63;;;6.50;99.90;;;;;;5059486;28;20048;-79
2021/11/04 09:30:42;;;;;;;1.13;0.50;;;6.40;99.90;;;;;;5059685;28;20085;-78
2021/11/04 09:33:10;;;;;;;1.48;0.60;;;6.50;99.90;;;;;;5059805;28;20055;-79
2021/11/04 09:35:38;;;;;;;1.00;0.50;;;6.50;99.90;;;;;;5058795;28;20053;-79
2021/11/04 09:38:05;;;;;;;1.02;0.50;;;6.50;99.90;;;;;;5054786;28;20546;-81
2021/11/04 09:40:33;;;;;;;2.08;0.60;;;6.50;99.90;;;;;;5055922;28;20049;-79
2021/11/04 09:43:03;;;;;;;1.00;0.60;;;6.50;99.90;;;;;;5070628;28;20477;-78
2021/11/04 09:45:32;;;;;;;1.05;0.40;;;6.50;99.90;;;;;;5055444;28;20230;-80
2021/11/04 09:47:59;;;;;;;1.48;0.60;;;6.50;99.90;;;;;;5054869;28;20076;-79
2021/11/04 09:50:26;;;;;;;1.25;0.40;;;6.50;99.90;;;;;;5054222;28;20143;-81
2021/11/04 09:52:55;;;;;;;1.35;0.60;;;6.50;99.90;;;;;;5051915;28;20586;-79
2021/11/04 09:55:26;;;;;;;1.65;0.55;;;6.60;99.90;;;;;;5054326;28;20057;-80
2021/11/04 09:57:57;;;;;;;1.45;0.50;;;6.60;99.90;;;;;;5052801;28;20126;-79
2021/11/04 10:00:35;;;;;;;1.67;0.60;;;6.60;99.90;;;;;;5051716;28;20095;-80
2021/11/04 10:03:09;;;;;;;1.55;0.60;;;6.60;99.90;;;;;;5055000;28;20053;-80
2021/11/04 10:05:45;;;;;;;1.30;0.60;;;6.60;99.90;;;;;;5053646;28;20082;-82
2021/11/04 10:08:14;;;;;;;2.28;0.60;;;6.60;99.90;;;;;;5053979;28;20140;-80
2021/11/04 10:10:43;;;;;;;0.90;0.50;;;6.60;99.90;;;;;;5055788;28;20049;-79
2021/11/04 10:13:13;;;;;;;1.55;0.60;;;6.60;99.90;;;;;;5055990;28;20049;-81
2021/11/04 10:15:43;;;;;;;1.45;0.50;;;6.70;99.90;;;;;;5052772;28;20461;-83
2021/11/04 10:18:17;;;;;;;0.93;0.50;;;6.70;99.90;;;;;;5052516;28;20495;-82
2021/11/04 10:20:56;;;;;;;2.65;0.50;;;6.70;99.90;;;;;;5053480;28;20053;-80
2021/11/04 10:23:25;;;;;;;0.75;0.50;;;6.70;99.90;;;;;;5053367;28;20091;-82
2021/11/04 10:26:05;;;;;;;0.90;0.50;;;6.70;99.90;;;;;;5055769;28;20132;-81
2021/11/04 10:28:33;;;;;;;0.85;0.40;;;6.70;99.90;;;;;;5055744;28;20491;-83
2021/11/04 10:31:02;;;;;;;1.35;0.50;;;6.70;99.90;;;;;;5051932;28;20131;-79
2021/11/04 10:33:31;;;;;;;1.65;0.65;;;6.70;99.90;;;;;;5052058;28;20076;-81
2021/11/04 10:36:06;;;;;;;0.88;0.45;;;6.80;99.90;;;;;;5052247;28;20136;-80
2021/11/04 10:38:45;;;;;;;2.38;0.65;;;6.80;99.90;;;;;;5051078;28;20041;-82
2021/11/04 10:41:21;;;;;;;1.42;0.55;;;6.80;99.90;;;;;;5047234;28;20150;-81
2021/11/04 10:43:50;;;;;;;1.25;0.50;;;6.80;99.90;;;;;;5033063;28;20137;-82
2021/11/04 10:46:19;;;;;;;1.85;0.60;;;6.80;99.90;;;;;;5033094;28;20105;-83
2021/11/04 10:48:48;;;;;;;1.38;0.60;;;6.90;99.90;;;;;;5033320;28;20161;-82
2021/11/04 10:51:17;;;;;;;1.83;0.50;;;6.90;99.90;;;;;;5033914;28;20128;-83
2021/11/04 10:53:45;;;;;;;1.52;0.70;;;6.80;99.90;;;;;;5033172;28;20434;-83
2021/11/04 10:56:20;;;;;;;1.25;0.50;;;6.90;99.90;;;;;;5053396;28;20091;-83
2021/11/04 10:59:02;;;;;;;1.52;0.85;;;6.90;99.90;;;;;;5052574;28;20124;-83
2021/11/04 11:01:37;;;;;;;1.17;0.50;;;6.90;99.90;;;;;;5052705;28;20136;-83
2021/11/04 11:04:08;;;;;;;0.80;0.40;;;7.00;99.90;;;;;;5052185;28;20128;-80
2021/11/04 11:06:39;;;;;;;2.05;0.60;;;7.00;99.90;;;;;;5051988;28;20041;-82
2021/11/04 11:09:10;;;;;;;0.82;0.43;;;7.00;99.90;;;;;;5051744;28;20099;-81
2021/11/04 11:11:40;;;;;;;1.70;0.60;;;7.00;99.90;;;;;;5052727;28;20107;-80
2021/11/04 11:14:08;;;;;;;0.82;0.45;;;7.10;99.90;;;;;;5085827;28;20498;-81
2021/11/04 11:16:38;;;;;;;0.98;0.57;;;7.10;99.90;;;;;;5084901;28;20146;-82
2021/11/04 11:19:08;;;;;;;1.25;0.60;;;7.00;99.90;;;;;;5052336;28;20465;-82
2021/11/04 11:21:42;;;;;;;1.42;0.68;;;7.00;99.90;;;;;;5052179;28;20084;-85
2021/11/04 11:24:11;;;;;;;1.60;0.50;;;7.10;99.90;;;;;;5082827;28;20045;-81
2021/11/04 11:26:40;;;;;;;1.88;0.70;;;7.00;99.90;;;;;;5051830;28;20128;-81
2021/11/04 11:29:07;;;;;;;1.50;0.68;;;7.00;99.90;;;;;;5058783;28;20049;-84
2021/11/04 11:31:48;;;;;;;1.40;0.70;;;7.00;99.90;;;;;;5057499;28;20053;-81
2021/11/04 11:34:26;;;;;;;1.60;0.65;;;7.10;99.90;;;;;;5055347;28;20136;-79
2021/11/04 11:37:15;;;;;;;1.38;0.60;;;7.00;99.90;;;;;;5058041;28;20502;-81
2021/11/04 11:39:46;;;;;;;1.30;0.60;;;7.00;99.90;;;;;;5054396;28;20045;-81
2021/11/04 11:42:19;;;;;;;1.60;0.70;;;7.10;99.90;;;;;;5055464;28;20088;-81
2021/11/04 11:44:54;;;;;;;2.00;0.70;;;7.00;99.90;;;;;;5055114;28;20078;-81
2021/11/04 11:47:37;;;;;;;2.25;0.82;;;7.00;99.90;;;;;;5056126;28;20453;-81
2021/11/04 11:50:26;;;;;;;3.40;0.93;;;7.00;99.90;;;;;;5056949;28;20067;-81
2021/11/04 11:53:00;;;;;;;1.60;0.73;;;7.00;99.90;;;;;;5059121;28;20071;-81
2021/11/04 11:55:40;;;;;;;2.30;0.93;;;7.00;99.90;;;;;;5094119;28;20124;-82
2021/11/04 11:58:30;;;;;;;1.90;0.80;;;7.00;99.90;;;;;;5054606;28;20099;-81
2021/11/04 12:01:18;;;;;;;2.17;1.00;;;7.00;99.90;;;;;;5054978;28;20047;-82
2021/11/04 12:04:01;;;;;;;2.53;1.20;;;7.00;99.90;;;;;;5055343;28;20410;-82
2021/11/04 12:06:45;;;;;;;2.83;1.20;;;7.00;99.90;;;;;;5054963;28;20135;-82
2021/11/04 12:09:37;;;;;;;3.50;1.53;;;7.00;99.90;;;;;;5054424;28;20443;-82
2021/11/04 12:12:05;;;;;;;3.35;1.58;;;7.00;99.90;;;;;;5054490;28;20057;-82
2021/11/04 12:14:35;;;;;;;3.20;1.40;;;7.10;99.90;;;;;;5054646;28;20129;-83
2021/11/04 12:17:16;;;;;;;2.75;1.50;;;7.10;99.90;;;;;;5053333;28;20072;-82
2021/11/04 12:19:48;;;;;;;2.92;1.50;;;7.10;99.90;;;;;;5053583;28;20574;-81
2021/11/04 12:22:27;;;;;;;3.63;1.70;;;7.10;99.90;;;;;;5053783;28;20128;-82
2021/11/04 12:24:57;;;;;;;4.30;1.75;;;7.20;99.90;;;;;;5053922;28;20140;-80
2021/11/04 12:27:25;;;;;;;3.50;1.77;;;7.20;99.90;;;;;;5054343;28;20147;-81
2021/11/04 12:29:54;;;;;;;3.40;1.70;;;7.30;99.90;;;;;;5053706;28;20140;-80
2021/11/04 12:32:25;;;;;;;3.83;1.67;;;7.30;99.90;;;;;;5053674;28;20144;-82
2021/11/04 12:34:59;;;;;;;3.80;1.80;;;7.40;99.90;;;;;;5053382;28;20534;-81
2021/11/04 12:37:30;;;;;;;4.05;1.75;;;7.40;99.90;;;;;;5054225;28;20085;-80
2021/11/04 12:39:59;;;;;;;3.35;2.00;;;7.50;99.90;;;;;;5053150;28;20072;-79
2021/11/04 12:42:27;;;;;;;3.63;2.00;;;7.50;99.90;;;;;;5053389;28;20124;-82
2021/11/04 12:44:54;;;;;;;3.83;2.00;;;7.50;99.90;;;;;;5052151;28;20068;-80
2021/11/04 12:47:27;;;;;;;4.45;2.20;;;7.50;99.90;;;;;;5053641;28;20053;-80
2021/11/04 12:49:57;;;;;;;5.18;2.00;;;7.60;99.90;;;;;;5052914;28;20544;-81
2021/11/04 12:52:26;;;;;;;4.28;2.00;;;7.60;99.90;;;;;;5053032;28;20132;-81
2021/11/04 12:54:56;;;;;;;6.10;2.22;;;7.70;99.90;;;;;;5053284;28;20053;-81
2021/11/04 12:57:25;;;;;;;4.30;2.58;;;7.70;99.90;;;;;;5053353;28;20059;-81
2021/11/04 12:59:56;;;;;;;4.28;2.10;;;7.80;99.90;;;;;;5068810;28;20139;-80
2021/11/04 13:02:26;;;;;;;4.28;2.55;;;7.80;99.90;;;;;;5053705;28;20372;-80
2021/11/04 13:04:58;;;;;;;3.97;2.30;;;7.80;99.90;;;;;;5053144;28;20095;-80
2021/11/04 13:07:28;;;;;;;3.70;2.30;;;7.90;99.90;;;;;;5053350;28;20450;-79
2021/11/04 13:09:57;;;;;;;4.03;2.20;;;8.00;99.90;;;;;;5052756;28;20406;-85